sensor_id;sensor_type;location;lat;lon;timestamp;pressure;altitude;pressure_sealevel;temperature;humidity
74045;BME280;62389;51.412;5.436;2022-11-10T00:00:08;101649.19;;;9.15;85.01
74045;BME280;62389;51.412;5.436;2022-11-10T00:02:33;101648.34;;;9.14;85.67
74045;BME280;62389;51.412;5.436;2022-11-10T00:04:59;101648.41;;;9.11;85.62
74045;BME280;62389;51.412;5.436;2022-11-10T00:07:26;101657.94;;;9.12;85.74
74045;BME280;62389;51.412;5.436;2022-11-10T00:09:51;101656.22;;;9.11;85.47
74045;BME280;62389;51.412;5.436;2022-11-10T00:12:18;101664.09;;;9.10;85.03
74045;BME280;62389;51.412;5.436;2022-11-10T00:14:44;101659.81;;;9.07;85.54
74045;BME280;62389;51.412;5.436;2022-11-10T00:17:28;101660.75;;;9.04;85.00
74045;BME280;62389;51.412;5.436;2022-11-10T00:19:53;101662.50;;;9.04;85.11
74045;BME280;62389;51.412;5.436;2022-11-10T00:22:19;101659.91;;;9.02;85.21
74045;BME280;62389;51.412;5.436;2022-11-10T00:24:44;101664.28;;;9.02;85.51
74045;BME280;62389;51.412;5.436;2022-11-10T00:27:11;101665.19;;;9.01;85.39
74045;BME280;62389;51.412;5.436;2022-11-10T00:29:36;101658.25;;;8.98;85.22
74045;BME280;62389;51.412;5.436;2022-11-10T00:32:02;101660.91;;;8.97;85.10
74045;BME280;62389;51.412;5.436;2022-11-10T00:34:27;101663.53;;;8.97;85.50
74045;BME280;62389;51.412;5.436;2022-11-10T00:36:52;101673.16;;;8.95;85.74
74045;BME280;62389;51.412;5.436;2022-11-10T00:39:18;101669.69;;;8.93;86.05
74045;BME280;62389;51.412;5.436;2022-11-10T00:41:43;101679.34;;;8.91;85.68
74045;BME280;62389;51.412;5.436;2022-11-10T00:44:08;101689.81;;;8.89;86.00
74045;BME280;62389;51.412;5.436;2022-11-10T00:46:34;101695.94;;;8.87;85.58
74045;BME280;62389;51.412;5.436;2022-11-10T00:48:59;101699.44;;;8.86;86.19
74045;BME280;62389;51.412;5.436;2022-11-10T00:51:27;101701.22;;;8.85;85.98
74045;BME280;62389;51.412;5.436;2022-11-10T00:53:53;101706.47;;;8.82;85.81
74045;BME280;62389;51.412;5.436;2022-11-10T00:56:19;101698.75;;;8.79;85.70
74045;BME280;62389;51.412;5.436;2022-11-10T00:58:45;101694.44;;;8.76;86.25
74045;BME280;62389;51.412;5.436;2022-11-10T01:01:11;101697.09;;;8.75;86.05
74045;BME280;62389;51.412;5.436;2022-11-10T01:03:37;101704.94;;;8.73;86.50
74045;BME280;62389;51.412;5.436;2022-11-10T01:06:14;101685.84;;;8.71;85.77
74045;BME280;62389;51.412;5.436;2022-11-10T01:08:40;101698.03;;;8.71;86.51
74045;BME280;62389;51.412;5.436;2022-11-10T01:13:38;101691.94;;;8.72;86.63
74045;BME280;62389;51.412;5.436;2022-11-10T01:16:12;101691.13;;;8.70;86.43
74045;BME280;62389;51.412;5.436;2022-11-10T01:18:38;101703.31;;;8.69;86.14
74045;BME280;62389;51.412;5.436;2022-11-10T01:21:05;101700.69;;;8.69;87.07
74045;BME280;62389;51.412;5.436;2022-11-10T01:23:31;101706.72;;;8.71;86.43
74045;BME280;62389;51.412;5.436;2022-11-10T01:26:02;101705.88;;;8.71;86.53
74045;BME280;62389;51.412;5.436;2022-11-10T01:28:28;101716.25;;;8.72;86.80
74045;BME280;62389;51.412;5.436;2022-11-10T01:31:08;101720.66;;;8.70;85.94
74045;BME280;62389;51.412;5.436;2022-11-10T01:33:35;101729.34;;;8.71;86.51
74045;BME280;62389;51.412;5.436;2022-11-10T01:36:00;101735.47;;;8.70;86.71
74045;BME280;62389;51.412;5.436;2022-11-10T01:38:27;101738.97;;;8.67;86.88
74045;BME280;62389;51.412;5.436;2022-11-10T01:40:54;101740.72;;;8.67;86.49
74045;BME280;62389;51.412;5.436;2022-11-10T01:43:20;101735.56;;;8.65;87.15
74045;BME280;62389;51.412;5.436;2022-11-10T01:51:19;101743.44;;;8.62;86.57
74045;BME280;62389;51.412;5.436;2022-11-10T01:53:50;101740.88;;;8.61;86.72
74045;BME280;62389;51.412;5.436;2022-11-10T01:56:18;101733.94;;;8.58;87.35
74045;BME280;62389;51.412;5.436;2022-11-10T01:58:54;101736.56;;;8.58;86.65
74045;BME280;62389;51.412;5.436;2022-11-10T02:01:22;101733.13;;;8.56;87.50
74045;BME280;62389;51.412;5.436;2022-11-10T02:03:50;101738.34;;;8.56;87.10
74045;BME280;62389;51.412;5.436;2022-11-10T02:06:20;101736.63;;;8.55;87.04
74045;BME280;62389;51.412;5.436;2022-11-10T02:08:47;101735.78;;;8.54;87.39
74045;BME280;62389;51.412;5.436;2022-11-10T02:11:14;101732.31;;;8.54;87.36
74045;BME280;62389;51.412;5.436;2022-11-10T02:13:39;101738.41;;;8.53;86.72
74045;BME280;62389;51.412;5.436;2022-11-10T02:16:05;101742.75;;;8.54;87.07
74045;BME280;62389;51.412;5.436;2022-11-10T02:18:31;101741.00;;;8.54;87.22
74045;BME280;62389;51.412;5.436;2022-11-10T02:20:56;101737.53;;;8.54;87.15
74045;BME280;62389;51.412;5.436;2022-11-10T02:25:57;101743.69;;;8.50;87.49
74045;BME280;62389;51.412;5.436;2022-11-10T02:28:23;101741.16;;;8.47;87.20
74045;BME280;62389;51.412;5.436;2022-11-10T02:30:50;101755.88;;;8.48;87.52
74045;BME280;62389;51.412;5.436;2022-11-10T02:33:16;101760.25;;;8.47;87.28
74045;BME280;62389;51.412;5.436;2022-11-10T02:35:45;101764.59;;;8.47;87.19
74045;BME280;62389;51.412;5.436;2022-11-10T02:38:11;101766.31;;;8.48;87.80
74045;BME280;62389;51.412;5.436;2022-11-10T02:40:37;101775.03;;;8.47;87.30
74045;BME280;62389;51.412;5.436;2022-11-10T02:43:05;101775.94;;;8.46;87.13
74045;BME280;62389;51.412;5.436;2022-11-10T02:45:30;101785.53;;;8.44;87.11
74045;BME280;62389;51.412;5.436;2022-11-10T02:47:56;101791.66;;;8.41;87.07
74045;BME280;62389;51.412;5.436;2022-11-10T02:50:21;101796.06;;;8.39;87.73
74045;BME280;62389;51.412;5.436;2022-11-10T02:52:47;101797.81;;;8.39;87.34
74045;BME280;62389;51.412;5.436;2022-11-10T02:55:12;101805.63;;;8.39;87.44
74045;BME280;62389;51.412;5.436;2022-11-10T02:57:38;101808.25;;;8.39;87.04
74045;BME280;62389;51.412;5.436;2022-11-10T03:00:05;101803.03;;;8.36;88.27
74045;BME280;62389;51.412;5.436;2022-11-10T03:02:31;101802.19;;;8.35;88.10
74045;BME280;62389;51.412;5.436;2022-11-10T03:04:56;101799.63;;;8.34;87.61
74045;BME280;62389;51.412;5.436;2022-11-10T03:07:21;101796.16;;;8.31;87.55
74045;BME280;62389;51.412;5.436;2022-11-10T03:09:47;101797.94;;;8.29;88.07
74045;BME280;62389;51.412;5.436;2022-11-10T03:12:12;101796.25;;;8.27;88.04
74045;BME280;62389;51.412;5.436;2022-11-10T03:14:37;101797.19;;;8.24;88.09
74045;BME280;62389;51.412;5.436;2022-11-10T03:17:03;101800.69;;;8.23;88.50
74045;BME280;62389;51.412;5.436;2022-11-10T03:19:28;101809.41;;;8.21;88.65
74045;BME280;62389;51.412;5.436;2022-11-10T03:21:53;101807.66;;;8.21;87.76
74045;BME280;62389;51.412;5.436;2022-11-10T03:24:19;101810.25;;;8.21;88.29
74045;BME280;62389;51.412;5.436;2022-11-10T03:26:44;101818.91;;;8.23;88.03
74045;BME280;62389;51.412;5.436;2022-11-10T03:29:09;101815.47;;;8.21;87.86
74045;BME280;62389;51.412;5.436;2022-11-10T03:31:35;101822.47;;;8.19;88.68
74045;BME280;62389;51.412;5.436;2022-11-10T03:34:00;101824.22;;;8.17;88.14
74045;BME280;62389;51.412;5.436;2022-11-10T03:36:25;101830.31;;;8.16;88.05
74045;BME280;62389;51.412;5.436;2022-11-10T03:38:51;101835.56;;;8.15;87.92
74045;BME280;62389;51.412;5.436;2022-11-10T03:41:16;101842.53;;;8.13;89.23
74045;BME280;62389;51.412;5.436;2022-11-10T03:43:41;101844.34;;;8.09;88.82
74045;BME280;62389;51.412;5.436;2022-11-10T03:46:07;101850.44;;;8.08;88.82
74045;BME280;62389;51.412;5.436;2022-11-10T03:48:33;101847.00;;;8.06;88.24
74045;BME280;62389;51.412;5.436;2022-11-10T03:50:58;101856.56;;;8.05;88.82
74045;BME280;62389;51.412;5.436;2022-11-10T03:53:24;101863.50;;;8.07;88.30
74045;BME280;62389;51.412;5.436;2022-11-10T03:55:49;101861.75;;;8.07;88.31
74045;BME280;62389;51.412;5.436;2022-11-10T03:58:14;101860.94;;;8.05;88.71
74045;BME280;62389;51.412;5.436;2022-11-10T04:00:40;101870.50;;;8.04;89.10
74045;BME280;62389;51.412;5.436;2022-11-10T04:03:05;101875.72;;;8.03;88.63
74045;BME280;62389;51.412;5.436;2022-11-10T04:05:30;101873.09;;;8.03;88.85
74045;BME280;62389;51.412;5.436;2022-11-10T04:08:15;101874.91;;;7.99;88.97
74045;BME280;62389;51.412;5.436;2022-11-10T04:10:59;101878.41;;;7.97;89.11
74045;BME280;62389;51.412;5.436;2022-11-10T04:13:25;101882.78;;;7.96;89.50
74045;BME280;62389;51.412;5.436;2022-11-10T04:16:09;101890.63;;;7.95;89.28
74045;BME280;62389;51.412;5.436;2022-11-10T04:18:34;101891.50;;;7.94;89.07
74045;BME280;62389;51.412;5.436;2022-11-10T04:21:01;101894.13;;;7.94;89.13
74045;BME280;62389;51.412;5.436;2022-11-10T04:23:28;101902.75;;;7.96;88.29
74045;BME280;62389;51.412;5.436;2022-11-10T04:26:05;101905.41;;;7.93;88.87
74045;BME280;62389;51.412;5.436;2022-11-10T04:28:51;101910.66;;;7.91;89.17
74045;BME280;62389;51.412;5.436;2022-11-10T04:31:19;101916.72;;;7.92;88.92
74045;BME280;62389;51.412;5.436;2022-11-10T04:33:46;101916.72;;;7.92;89.22
74045;BME280;62389;51.412;5.436;2022-11-10T04:36:13;101920.22;;;7.91;88.99
74045;BME280;62389;51.412;5.436;2022-11-10T04:38:39;101914.13;;;7.90;89.49
74045;BME280;62389;51.412;5.436;2022-11-10T04:41:06;101920.22;;;7.91;88.80
74045;BME280;62389;51.412;5.436;2022-11-10T04:43:32;101917.59;;;7.91;89.51
74045;BME280;62389;51.412;5.436;2022-11-10T04:45:58;101922.00;;;7.89;89.34
74045;BME280;62389;51.412;5.436;2022-11-10T04:48:25;101929.81;;;7.89;90.04
74045;BME280;62389;51.412;5.436;2022-11-10T04:50:51;101936.75;;;7.88;89.44
74045;BME280;62389;51.412;5.436;2022-11-10T04:53:16;101940.22;;;7.89;89.32
74045;BME280;62389;51.412;5.436;2022-11-10T04:55:43;101947.13;;;7.91;89.28
74045;BME280;62389;51.412;5.436;2022-11-10T04:58:09;101944.50;;;7.91;89.47
74045;BME280;62389;51.412;5.436;2022-11-10T05:00:35;101948.81;;;7.92;89.25
74045;BME280;62389;51.412;5.436;2022-11-10T05:03:02;101949.72;;;7.91;89.74
74045;BME280;62389;51.412;5.436;2022-11-10T05:05:27;101953.22;;;7.90;89.80
74045;BME280;62389;51.412;5.436;2022-11-10T05:07:53;101959.25;;;7.92;90.07
74045;BME280;62389;51.412;5.436;2022-11-10T05:10:18;101958.38;;;7.92;89.49
74045;BME280;62389;51.412;5.436;2022-11-10T05:12:43;101955.78;;;7.92;89.50
74045;BME280;62389;51.412;5.436;2022-11-10T05:15:09;101963.59;;;7.92;89.68
74045;BME280;62389;51.412;5.436;2022-11-10T05:17:35;101982.72;;;7.91;89.25
74045;BME280;62389;51.412;5.436;2022-11-10T05:20:00;101981.88;;;7.90;89.12
74045;BME280;62389;51.412;5.436;2022-11-10T05:22:26;101990.53;;;7.91;90.22
74045;BME280;62389;51.412;5.436;2022-11-10T05:24:51;101980.16;;;7.88;89.56
74045;BME280;62389;51.412;5.436;2022-11-10T05:27:16;101986.25;;;7.87;89.50
74045;BME280;62389;51.412;5.436;2022-11-10T05:29:42;101984.53;;;7.86;89.06
74045;BME280;62389;51.412;5.436;2022-11-10T05:32:07;101986.31;;;7.84;89.69
74045;BME280;62389;51.412;5.436;2022-11-10T05:34:32;101982.84;;;7.82;89.50
74045;BME280;62389;51.412;5.436;2022-11-10T05:36:58;101989.78;;;7.83;90.16
74045;BME280;62389;51.412;5.436;2022-11-10T05:39:23;101987.16;;;7.83;89.82
74045;BME280;62389;51.412;5.436;2022-11-10T05:41:49;101978.50;;;7.82;90.07
74045;BME280;62389;51.412;5.436;2022-11-10T05:44:15;101982.84;;;7.83;90.31
74045;BME280;62389;51.412;5.436;2022-11-10T05:46:40;101973.28;;;7.84;90.25
74045;BME280;62389;51.412;5.436;2022-11-10T05:49:06;101981.09;;;7.84;90.36
74045;BME280;62389;51.412;5.436;2022-11-10T05:51:32;101963.72;;;7.84;90.36
74045;BME280;62389;51.412;5.436;2022-11-10T05:53:57;101972.44;;;7.83;90.54
74045;BME280;62389;51.412;5.436;2022-11-10T05:56:22;101983.75;;;7.81;90.26
74045;BME280;62389;51.412;5.436;2022-11-10T05:58:48;101983.78;;;7.79;89.98
74045;BME280;62389;51.412;5.436;2022-11-10T06:01:13;101996.75;;;7.81;90.13
74045;BME280;62389;51.412;5.436;2022-11-10T06:03:38;101996.75;;;7.81;89.95
74045;BME280;62389;51.412;5.436;2022-11-10T06:06:04;102001.97;;;7.81;90.08
74045;BME280;62389;51.412;5.436;2022-11-10T06:08:30;102000.25;;;7.79;90.33
74045;BME280;62389;51.412;5.436;2022-11-10T06:10:55;102013.25;;;7.81;89.83
74045;BME280;62389;51.412;5.436;2022-11-10T06:13:21;102017.63;;;7.79;89.95
74045;BME280;62389;51.412;5.436;2022-11-10T06:15:46;102015.91;;;7.76;89.97
74045;BME280;62389;51.412;5.436;2022-11-10T06:18:11;102031.56;;;7.75;89.58
74045;BME280;62389;51.412;5.436;2022-11-10T06:20:37;102034.13;;;7.76;89.84
74045;BME280;62389;51.412;5.436;2022-11-10T06:23:04;102029.81;;;7.75;90.08
74045;BME280;62389;51.412;5.436;2022-11-10T06:25:32;102028.09;;;7.73;89.69
74045;BME280;62389;51.412;5.436;2022-11-10T06:27:58;102037.69;;;7.71;89.37
74045;BME280;62389;51.412;5.436;2022-11-10T06:30:25;102039.47;;;7.67;90.14
74045;BME280;62389;51.412;5.436;2022-11-10T06:32:51;102035.13;;;7.66;89.60
74045;BME280;62389;51.412;5.436;2022-11-10T06:35:16;102045.63;;;7.63;89.54
74045;BME280;62389;51.412;5.436;2022-11-10T06:37:42;102050.84;;;7.60;90.51
74045;BME280;62389;51.412;5.436;2022-11-10T06:40:09;102054.34;;;7.59;90.15
74045;BME280;62389;51.412;5.436;2022-11-10T06:42:35;102054.34;;;7.59;89.76
74045;BME280;62389;51.412;5.436;2022-11-10T06:45:00;102063.06;;;7.55;90.11
74045;BME280;62389;51.412;5.436;2022-11-10T06:47:26;102070.06;;;7.50;90.34
74045;BME280;62389;51.412;5.436;2022-11-10T06:49:51;102079.59;;;7.51;89.74
74045;BME280;62389;51.412;5.436;2022-11-10T06:52:17;102076.97;;;7.51;90.07
74045;BME280;62389;51.412;5.436;2022-11-10T06:54:42;102085.66;;;7.51;90.41
74045;BME280;62389;51.412;5.436;2022-11-10T06:57:07;102087.41;;;7.51;90.41
74045;BME280;62389;51.412;5.436;2022-11-10T06:59:33;102087.41;;;7.51;89.95
74045;BME280;62389;51.412;5.436;2022-11-10T07:01:58;102092.59;;;7.51;90.06
74045;BME280;62389;51.412;5.436;2022-11-10T07:04:24;102096.06;;;7.53;90.04
74045;BME280;62389;51.412;5.436;2022-11-10T07:06:49;102102.13;;;7.53;90.44
74045;BME280;62389;51.412;5.436;2022-11-10T07:09:14;102109.94;;;7.52;90.66
74045;BME280;62389;51.412;5.436;2022-11-10T07:11:40;102098.66;;;7.55;90.10
74045;BME280;62389;51.412;5.436;2022-11-10T07:14:05;102111.63;;;7.59;89.42
74045;BME280;62389;51.412;5.436;2022-11-10T07:16:30;102110.72;;;7.62;90.19
74045;BME280;62389;51.412;5.436;2022-11-10T07:18:56;102118.50;;;7.65;89.73
74045;BME280;62389;51.412;5.436;2022-11-10T07:21:21;102116.72;;;7.68;89.84
74045;BME280;62389;51.412;5.436;2022-11-10T07:23:46;102122.78;;;7.70;89.64
74045;BME280;62389;51.412;5.436;2022-11-10T07:26:12;102125.38;;;7.70;89.70
74045;BME280;62389;51.412;5.436;2022-11-10T07:28:38;102133.13;;;7.75;89.64
74045;BME280;62389;51.412;5.436;2022-11-10T07:31:03;102145.25;;;7.77;89.19
74045;BME280;62389;51.412;5.436;2022-11-10T07:33:29;102143.47;;;7.81;89.48
74045;BME280;62389;51.412;5.436;2022-11-10T07:35:59;102148.66;;;7.83;89.64
74045;BME280;62389;51.412;5.436;2022-11-10T07:38:25;102159.97;;;7.82;89.80
74045;BME280;62389;51.412;5.436;2022-11-10T07:40:52;102168.59;;;7.87;89.72
74045;BME280;62389;51.412;5.436;2022-11-10T07:43:23;102160.69;;;7.93;89.17
74045;BME280;62389;51.412;5.436;2022-11-10T07:45:49;102161.53;;;7.96;89.94
74045;BME280;62389;51.412;5.436;2022-11-10T07:48:15;102164.06;;;8.02;89.02
74045;BME280;62389;51.412;5.436;2022-11-10T07:50:40;102166.63;;;8.07;89.42
74045;BME280;62389;51.412;5.436;2022-11-10T07:53:09;102163.06;;;8.14;89.45
74045;BME280;62389;51.412;5.436;2022-11-10T07:55:36;102161.28;;;8.19;88.63
74045;BME280;62389;51.412;5.436;2022-11-10T07:58:03;102157.72;;;8.25;88.56
74045;BME280;62389;51.412;5.436;2022-11-10T08:00:28;102156.81;;;8.29;88.83
74045;BME280;62389;51.412;5.436;2022-11-10T08:03:20;102175.00;;;8.34;88.90
74045;BME280;62389;51.412;5.436;2022-11-10T08:05:45;102175.81;;;8.40;89.08
74045;BME280;62389;51.412;5.436;2022-11-10T08:08:11;102178.28;;;8.49;88.20
74045;BME280;62389;51.412;5.436;2022-11-10T08:10:38;102179.91;;;8.56;88.03
74045;BME280;62389;51.412;5.436;2022-11-10T08:13:05;102180.69;;;8.63;87.57
74045;BME280;62389;51.412;5.436;2022-11-10T08:15:32;102182.34;;;8.70;87.73
74045;BME280;62389;51.412;5.436;2022-11-10T08:18:22;102192.69;;;8.76;87.41
74045;BME280;62389;51.412;5.436;2022-11-10T08:20:47;102192.56;;;8.84;87.52
74045;BME280;62389;51.412;5.436;2022-11-10T08:23:14;102205.56;;;8.89;87.15
74045;BME280;62389;51.412;5.436;2022-11-10T08:25:39;102208.97;;;8.92;87.52
74045;BME280;62389;51.412;5.436;2022-11-10T08:28:07;102204.56;;;8.96;87.31
74045;BME280;62389;51.412;5.436;2022-11-10T08:30:35;102206.25;;;9.00;87.26
74045;BME280;62389;51.412;5.436;2022-11-10T08:33:03;102204.44;;;9.03;86.60
74045;BME280;62389;51.412;5.436;2022-11-10T08:35:30;102204.38;;;9.10;86.61
74045;BME280;62389;51.412;5.436;2022-11-10T08:37:56;102213.84;;;9.15;86.81
74045;BME280;62389;51.412;5.436;2022-11-10T08:40:23;102215.50;;;9.21;87.13
74045;BME280;62389;51.412;5.436;2022-11-10T08:42:58;102215.34;;;9.28;86.55
74045;BME280;62389;51.412;5.436;2022-11-10T08:45:24;102214.38;;;9.36;86.31
74045;BME280;62389;51.412;5.436;2022-11-10T08:48:04;102216.88;;;9.42;86.26
74045;BME280;62389;51.412;5.436;2022-11-10T08:50:31;102214.16;;;9.49;85.80
74045;BME280;62389;51.412;5.436;2022-11-10T08:53:00;102220.13;;;9.56;86.47
74045;BME280;62389;51.412;5.436;2022-11-10T08:55:26;102222.66;;;9.60;85.73
74045;BME280;62389;51.412;5.436;2022-11-10T08:57:51;102219.97;;;9.65;85.63
74045;BME280;62389;51.412;5.436;2022-11-10T09:00:17;102221.59;;;9.71;85.45
74045;BME280;62389;51.412;5.436;2022-11-10T09:02:42;102225.81;;;9.78;85.52
74045;BME280;62389;51.412;5.436;2022-11-10T09:05:08;102230.06;;;9.83;85.20
74045;BME280;62389;51.412;5.436;2022-11-10T09:07:46;102236.06;;;9.89;84.77
74045;BME280;62389;51.412;5.436;2022-11-10T09:10:12;102246.41;;;9.96;84.77
74045;BME280;62389;51.412;5.436;2022-11-10T09:12:39;102243.69;;;10.01;84.15
74045;BME280;62389;51.412;5.436;2022-11-10T09:15:05;102245.28;;;10.08;84.37
74045;BME280;62389;51.412;5.436;2022-11-10T09:17:31;102250.38;;;10.16;84.24
74045;BME280;62389;51.412;5.436;2022-11-10T09:19:57;102251.13;;;10.24;84.10
74045;BME280;62389;51.412;5.436;2022-11-10T09:22:22;102248.41;;;10.30;84.12
74045;BME280;62389;51.412;5.436;2022-11-10T09:24:47;102249.13;;;10.36;84.17
74045;BME280;62389;51.412;5.436;2022-11-10T09:27:13;102251.59;;;10.43;83.42
74045;BME280;62389;51.412;5.436;2022-11-10T09:29:38;102260.22;;;10.48;83.61
74045;BME280;62389;51.412;5.436;2022-11-10T09:32:03;102254.00;;;10.53;83.74
74045;BME280;62389;51.412;5.436;2022-11-10T09:34:29;102254.66;;;10.63;83.50
74045;BME280;62389;51.412;5.436;2022-11-10T09:36:54;102258.81;;;10.73;83.09
74045;BME280;62389;51.412;5.436;2022-11-10T09:39:20;102256.97;;;10.78;82.78
74045;BME280;62389;51.412;5.436;2022-11-10T09:41:45;102253.34;;;10.84;82.41
74045;BME280;62389;51.412;5.436;2022-11-10T09:44:38;102251.41;;;10.92;82.75
74045;BME280;62389;51.412;5.436;2022-11-10T09:47:15;102251.25;;;11.00;81.97
74045;BME280;62389;51.412;5.436;2022-11-10T09:52:16;102257.97;;;11.11;81.55
74045;BME280;62389;51.412;5.436;2022-11-10T09:54:51;102270.84;;;11.19;81.66
74045;BME280;62389;51.412;5.436;2022-11-10T09:57:21;102260.22;;;11.27;81.34
74045;BME280;62389;51.412;5.436;2022-11-10T09:59:48;102266.09;;;11.36;80.79
74045;BME280;62389;51.412;5.436;2022-11-10T10:02:32;102264.16;;;11.45;80.77
74045;BME280;62389;51.412;5.436;2022-11-10T10:08:08;102263.22;;;11.83;79.55
74045;BME280;62389;51.412;5.436;2022-11-10T10:11:05;102249.69;;;13.16;79.04
74045;BME280;62389;51.412;5.436;2022-11-10T10:14:01;102253.25;;;15.75;71.89
74045;BME280;62389;51.412;5.436;2022-11-10T10:22:18;102259.38;;;20.74;61.24
74045;BME280;62389;51.412;5.436;2022-11-10T10:24:52;102259.69;;;21.24;51.13
74045;BME280;62389;51.412;5.436;2022-11-10T10:27:25;102266.50;;;20.74;51.17
74045;BME280;62389;51.412;5.436;2022-11-10T10:29:51;102275.47;;;19.55;51.87
74045;BME280;62389;51.412;5.436;2022-11-10T10:32:18;102268.06;;;18.51;55.56
74045;BME280;62389;51.412;5.436;2022-11-10T10:34:44;102283.31;;;17.97;62.90
74045;BME280;62389;51.412;5.436;2022-11-10T10:37:24;102293.31;;;17.02;61.20
74045;BME280;62389;51.412;5.436;2022-11-10T10:39:52;102293.03;;;16.31;60.31
74045;BME280;62389;51.412;5.436;2022-11-10T10:42:33;102302.34;;;15.79;62.92
74045;BME280;62389;51.412;5.436;2022-11-10T10:47:49;102308.94;;;15.47;64.35
74045;BME280;62389;51.412;5.436;2022-11-10T10:53:14;102318.00;;;15.18;64.94
74045;BME280;62389;51.412;5.436;2022-11-10T10:55:45;102328.66;;;15.15;64.01
74045;BME280;62389;51.412;5.436;2022-11-10T10:58:19;102326.88;;;15.15;65.79
74045;BME280;62389;51.412;5.436;2022-11-10T11:00:47;102315.03;;;15.25;65.60
74045;BME280;62389;51.412;5.436;2022-11-10T11:03:29;102320.19;;;15.28;65.93
74045;BME280;62389;51.412;5.436;2022-11-10T11:08:31;102315.16;;;15.44;64.56
74045;BME280;62389;51.412;5.436;2022-11-10T11:11:06;102309.53;;;15.53;65.55
74045;BME280;62389;51.412;5.436;2022-11-10T11:13:32;102317.09;;;15.61;65.37
74045;BME280;62389;51.412;5.436;2022-11-10T11:15:59;102321.25;;;15.68;64.30
74045;BME280;62389;51.412;5.436;2022-11-10T11:18:27;102317.75;;;15.68;63.34
74045;BME280;62389;51.412;5.436;2022-11-10T11:26:59;102316.44;;;15.78;63.95
74045;BME280;62389;51.412;5.436;2022-11-10T11:32:14;102317.78;;;15.88;64.23
74045;BME280;62389;51.412;5.436;2022-11-10T11:45:48;102337.88;;;16.52;60.50
74045;BME280;62389;51.412;5.436;2022-11-10T11:51:02;102334.16;;;16.56;58.72
74045;BME280;62389;51.412;5.436;2022-11-10T11:53:51;102349.50;;;16.48;59.72
74045;BME280;62389;51.412;5.436;2022-11-10T11:56:25;102348.25;;;16.36;58.91
74045;BME280;62389;51.412;5.436;2022-11-10T12:01:53;102349.34;;;16.90;57.64
74045;BME280;62389;51.412;5.436;2022-11-10T12:09:47;102357.88;;;16.78;57.00
74045;BME280;62389;51.412;5.436;2022-11-10T12:12:28;102366.16;;;16.69;56.24
74045;BME280;62389;51.412;5.436;2022-11-10T12:14:59;102365.53;;;16.64;56.71
74045;BME280;62389;51.412;5.436;2022-11-10T12:20:11;102374.44;;;17.00;56.56
74045;BME280;62389;51.412;5.436;2022-11-10T12:27:42;102365.19;;;20.25;47.93
74045;BME280;62389;51.412;5.436;2022-11-10T12:30:10;102373.97;;;20.84;46.26
74045;BME280;62389;51.412;5.436;2022-11-10T12:32:43;102371.69;;;20.92;46.34
74045;BME280;62389;51.412;5.436;2022-11-10T12:35:16;102371.59;;;20.79;45.31
74045;BME280;62389;51.412;5.436;2022-11-10T12:38:30;102368.53;;;20.28;45.49
74045;BME280;62389;51.412;5.436;2022-11-10T12:40:37;102375.59;;;20.28;47.55
74045;BME280;62389;51.412;5.436;2022-11-10T12:43:08;102374.44;;;20.17;46.46
74045;BME280;62389;51.412;5.436;2022-11-10T12:45:51;102377.19;;;19.40;48.32
74045;BME280;62389;51.412;5.436;2022-11-10T12:48:19;102364.81;;;18.76;48.62
74045;BME280;62389;51.412;5.436;2022-11-10T12:53:25;102374.91;;;18.69;49.99
74045;BME280;62389;51.412;5.436;2022-11-10T12:56:21;102376.25;;;19.09;51.03
74045;BME280;62389;51.412;5.436;2022-11-10T12:59:20;102376.84;;;20.22;47.99
74045;BME280;62389;51.412;5.436;2022-11-10T13:01:51;102374.16;;;20.81;46.62
74045;BME280;62389;51.412;5.436;2022-11-10T13:04:21;102372.59;;;21.19;45.23
74045;BME280;62389;51.412;5.436;2022-11-10T13:09:26;102384.03;;;22.15;42.07
74045;BME280;62389;51.412;5.436;2022-11-10T13:12:19;102374.13;;;22.17;44.29
74045;BME280;62389;51.412;5.436;2022-11-10T13:14:46;102367.84;;;22.57;40.99
74045;BME280;62389;51.412;5.436;2022-11-10T13:19:54;102369.69;;;21.91;41.76
74045;BME280;62389;51.412;5.436;2022-11-10T13:22:38;102386.91;;;20.76;45.00
74045;BME280;62389;51.412;5.436;2022-11-10T13:28:04;102390.94;;;18.83;49.33
74045;BME280;62389;51.412;5.436;2022-11-10T13:30:39;102380.38;;;18.31;50.65
74045;BME280;62389;51.412;5.436;2022-11-10T13:35:53;102404.53;;;16.98;53.25
74045;BME280;62389;51.412;5.436;2022-11-10T13:41:32;102397.50;;;16.37;55.57
74045;BME280;62389;51.412;5.436;2022-11-10T13:43:58;102395.72;;;16.17;56.20
74045;BME280;62389;51.412;5.436;2022-11-10T13:46:32;102392.81;;;16.03;56.70
74045;BME280;62389;51.412;5.436;2022-11-10T13:51:35;102406.31;;;15.95;57.22
74045;BME280;62389;51.412;5.436;2022-11-10T13:59:24;102386.19;;;15.71;57.36
74045;BME280;62389;51.412;5.436;2022-11-10T14:01:50;102383.00;;;15.63;57.71
74045;BME280;62389;51.412;5.436;2022-11-10T14:06:59;102381.50;;;15.55;58.69
74045;BME280;62389;51.412;5.436;2022-11-10T14:11:55;102383.47;;;15.50;58.67
74045;BME280;62389;51.412;5.436;2022-11-10T14:14:31;102385.31;;;15.48;58.84
74045;BME280;62389;51.412;5.436;2022-11-10T14:17:00;102394.41;;;15.41;58.53
74045;BME280;62389;51.412;5.436;2022-11-10T14:19:37;102389.50;;;15.32;58.81
74045;BME280;62389;51.412;5.436;2022-11-10T14:25:22;102388.97;;;15.22;59.53
74045;BME280;62389;51.412;5.436;2022-11-10T14:27:48;102399.69;;;15.18;59.04
74045;BME280;62389;51.412;5.436;2022-11-10T14:32:42;102401.91;;;15.05;60.11
74045;BME280;62389;51.412;5.436;2022-11-10T14:35:22;102400.44;;;14.98;59.38
74045;BME280;62389;51.412;5.436;2022-11-10T14:37:48;102405.97;;;14.90;59.53
74045;BME280;62389;51.412;5.436;2022-11-10T14:40:16;102405.28;;;14.85;59.87
74045;BME280;62389;51.412;5.436;2022-11-10T14:42:44;102395.91;;;14.78;60.15
74045;BME280;62389;51.412;5.436;2022-11-10T14:45:25;102381.13;;;14.74;60.94
74045;BME280;62389;51.412;5.436;2022-11-10T14:47:55;102383.91;;;14.71;61.36